sensor_id;sensor_type;location;lat;lon;timestamp;P1;durP1;ratioP1;P2;durP2;ratioP2
70733;SDS011;58320;48.804;9.252;2022-11-20T00:01:11;15.03;;;8.33;;
70733;SDS011;58320;48.804;9.252;2022-11-20T00:03:40;16.42;;;7.90;;
70733;SDS011;58320;48.804;9.252;2022-11-20T00:06:07;14.85;;;8.48;;
70733;SDS011;58320;48.804;9.252;2022-11-20T00:08:36;16.20;;;7.78;;
70733;SDS011;58320;48.804;9.252;2022-11-20T00:11:06;18.88;;;9.27;;
70733;SDS011;58320;48.804;9.252;2022-11-20T00:13:46;14.87;;;7.90;;
70733;SDS011;58320;48.804;9.252;2022-11-20T00:16:15;14.27;;;8.00;;
70733;SDS011;58320;48.804;9.252;2022-11-20T00:18:44;20.17;;;8.52;;
70733;SDS011;58320;48.804;9.252;2022-11-20T00:21:11;15.38;;;7.75;;
70733;SDS011;58320;48.804;9.252;2022-11-20T00:23:40;14.52;;;7.78;;
70733;SDS011;58320;48.804;9.252;2022-11-20T00:26:07;16.00;;;7.97;;
70733;SDS011;58320;48.804;9.252;2022-11-20T00:28:36;16.02;;;8.23;;
70733;SDS011;58320;48.804;9.252;2022-11-20T00:33:30;13.38;;;6.97;;
70733;SDS011;58320;48.804;9.252;2022-11-20T00:36:03;13.45;;;7.55;;
70733;SDS011;58320;48.804;9.252;2022-11-20T00:38:37;16.40;;;8.43;;
70733;SDS011;58320;48.804;9.252;2022-11-20T00:41:04;15.70;;;8.05;;
70733;SDS011;58320;48.804;9.252;2022-11-20T00:43:33;14.10;;;8.00;;
70733;SDS011;58320;48.804;9.252;2022-11-20T00:46:00;15.00;;;7.88;;
70733;SDS011;58320;48.804;9.252;2022-11-20T00:48:34;14.97;;;7.33;;
70733;SDS011;58320;48.804;9.252;2022-11-20T00:51:00;14.55;;;7.50;;
70733;SDS011;58320;48.804;9.252;2022-11-20T00:53:26;16.65;;;8.52;;
70733;SDS011;58320;48.804;9.252;2022-11-20T00:55:53;14.98;;;7.75;;
70733;SDS011;58320;48.804;9.252;2022-11-20T00:58:21;18.58;;;8.15;;
70733;SDS011;58320;48.804;9.252;2022-11-20T01:00:48;13.77;;;7.27;;
70733;SDS011;58320;48.804;9.252;2022-11-20T01:03:15;15.65;;;6.85;;
70733;SDS011;58320;48.804;9.252;2022-11-20T01:05:42;15.13;;;7.65;;
70733;SDS011;58320;48.804;9.252;2022-11-20T01:08:08;13.30;;;6.80;;
70733;SDS011;58320;48.804;9.252;2022-11-20T01:10:34;13.90;;;7.73;;
70733;SDS011;58320;48.804;9.252;2022-11-20T01:12:59;14.23;;;7.50;;
70733;SDS011;58320;48.804;9.252;2022-11-20T01:15:43;13.02;;;7.05;;
70733;SDS011;58320;48.804;9.252;2022-11-20T01:18:09;13.13;;;7.00;;
70733;SDS011;58320;48.804;9.252;2022-11-20T01:20:35;13.33;;;6.13;;
70733;SDS011;58320;48.804;9.252;2022-11-20T01:23:04;10.32;;;6.05;;
70733;SDS011;58320;48.804;9.252;2022-11-20T01:25:30;13.50;;;5.90;;
70733;SDS011;58320;48.804;9.252;2022-11-20T01:27:56;10.03;;;5.60;;
70733;SDS011;58320;48.804;9.252;2022-11-20T01:30:22;9.40;;;5.03;;
70733;SDS011;58320;48.804;9.252;2022-11-20T01:32:47;8.43;;;5.10;;
70733;SDS011;58320;48.804;9.252;2022-11-20T01:35:13;9.53;;;5.03;;
70733;SDS011;58320;48.804;9.252;2022-11-20T01:37:39;8.57;;;4.50;;
70733;SDS011;58320;48.804;9.252;2022-11-20T01:40:05;8.83;;;4.33;;
70733;SDS011;58320;48.804;9.252;2022-11-20T01:42:31;9.17;;;4.53;;
70733;SDS011;58320;48.804;9.252;2022-11-20T01:48:19;8.68;;;4.13;;
70733;SDS011;58320;48.804;9.252;2022-11-20T01:50:47;7.20;;;3.90;;
70733;SDS011;58320;48.804;9.252;2022-11-20T01:53:15;6.35;;;4.05;;
70733;SDS011;58320;48.804;9.252;2022-11-20T01:55:51;6.17;;;3.63;;
70733;SDS011;58320;48.804;9.252;2022-11-20T01:58:21;5.72;;;3.25;;
70733;SDS011;58320;48.804;9.252;2022-11-20T02:00:52;6.63;;;3.50;;
70733;SDS011;58320;48.804;9.252;2022-11-20T02:03:19;7.87;;;3.67;;
70733;SDS011;58320;48.804;9.252;2022-11-20T02:08:26;6.35;;;3.30;;
70733;SDS011;58320;48.804;9.252;2022-11-20T02:10:53;5.55;;;3.15;;
70733;SDS011;58320;48.804;9.252;2022-11-20T02:13:19;7.97;;;3.45;;
70733;SDS011;58320;48.804;9.252;2022-11-20T02:16:04;5.93;;;3.00;;
70733;SDS011;58320;48.804;9.252;2022-11-20T02:18:37;6.03;;;2.90;;
70733;SDS011;58320;48.804;9.252;2022-11-20T02:21:09;6.97;;;2.97;;
70733;SDS011;58320;48.804;9.252;2022-11-20T02:26:27;7.43;;;3.35;;
70733;SDS011;58320;48.804;9.252;2022-11-20T02:28:55;6.00;;;3.00;;
70733;SDS011;58320;48.804;9.252;2022-11-20T02:31:23;7.30;;;4.05;;
70733;SDS011;58320;48.804;9.252;2022-11-20T02:33:58;7.07;;;3.08;;
70733;SDS011;58320;48.804;9.252;2022-11-20T02:36:24;7.13;;;4.10;;
70733;SDS011;58320;48.804;9.252;2022-11-20T02:38:52;6.27;;;3.17;;
70733;SDS011;58320;48.804;9.252;2022-11-20T02:41:19;6.10;;;3.10;;
70733;SDS011;58320;48.804;9.252;2022-11-20T02:43:45;6.95;;;3.45;;
70733;SDS011;58320;48.804;9.252;2022-11-20T02:46:10;5.27;;;2.90;;
70733;SDS011;58320;48.804;9.252;2022-11-20T02:48:36;5.88;;;3.03;;
70733;SDS011;58320;48.804;9.252;2022-11-20T02:51:02;5.03;;;2.80;;
70733;SDS011;58320;48.804;9.252;2022-11-20T02:53:28;6.83;;;2.90;;
70733;SDS011;58320;48.804;9.252;2022-11-20T02:55:54;4.82;;;2.50;;
70733;SDS011;58320;48.804;9.252;2022-11-20T02:58:20;5.20;;;2.60;;
70733;SDS011;58320;48.804;9.252;2022-11-20T03:00:46;6.80;;;2.67;;
70733;SDS011;58320;48.804;9.252;2022-11-20T03:03:11;6.03;;;2.50;;
70733;SDS011;58320;48.804;9.252;2022-11-20T03:05:37;5.18;;;2.53;;
70733;SDS011;58320;48.804;9.252;2022-11-20T03:08:03;5.57;;;2.70;;
70733;SDS011;58320;48.804;9.252;2022-11-20T03:10:29;6.72;;;2.88;;
70733;SDS011;58320;48.804;9.252;2022-11-20T03:12:55;5.38;;;2.85;;
70733;SDS011;58320;48.804;9.252;2022-11-20T03:15:22;5.33;;;2.80;;
70733;SDS011;58320;48.804;9.252;2022-11-20T03:17:48;6.65;;;3.08;;
70733;SDS011;58320;48.804;9.252;2022-11-20T03:20:14;5.43;;;3.00;;
70733;SDS011;58320;48.804;9.252;2022-11-20T03:22:40;7.07;;;3.10;;
70733;SDS011;58320;48.804;9.252;2022-11-20T03:25:06;5.03;;;2.80;;
70733;SDS011;58320;48.804;9.252;2022-11-20T03:27:33;6.60;;;3.00;;
70733;SDS011;58320;48.804;9.252;2022-11-20T03:30:00;5.68;;;3.03;;
70733;SDS011;58320;48.804;9.252;2022-11-20T03:32:26;6.45;;;3.08;;
70733;SDS011;58320;48.804;9.252;2022-11-20T03:34:52;4.93;;;2.77;;
70733;SDS011;58320;48.804;9.252;2022-11-20T03:37:17;8.70;;;2.90;;
70733;SDS011;58320;48.804;9.252;2022-11-20T03:39:43;6.13;;;3.10;;
70733;SDS011;58320;48.804;9.252;2022-11-20T03:42:09;5.97;;;3.15;;
70733;SDS011;58320;48.804;9.252;2022-11-20T03:44:53;5.95;;;3.03;;
70733;SDS011;58320;48.804;9.252;2022-11-20T03:47:20;5.10;;;2.90;;
70733;SDS011;58320;48.804;9.252;2022-11-20T03:49:46;6.33;;;3.17;;
70733;SDS011;58320;48.804;9.252;2022-11-20T03:52:11;5.85;;;2.83;;
70733;SDS011;58320;48.804;9.252;2022-11-20T03:54:37;6.47;;;3.42;;
70733;SDS011;58320;48.804;9.252;2022-11-20T03:57:03;10.53;;;3.20;;
70733;SDS011;58320;48.804;9.252;2022-11-20T03:59:29;6.38;;;3.13;;
70733;SDS011;58320;48.804;9.252;2022-11-20T04:01:54;5.53;;;3.05;;
70733;SDS011;58320;48.804;9.252;2022-11-20T04:04:20;5.70;;;3.27;;
70733;SDS011;58320;48.804;9.252;2022-11-20T04:06:46;5.68;;;3.35;;
70733;SDS011;58320;48.804;9.252;2022-11-20T04:09:12;5.90;;;3.70;;
70733;SDS011;58320;48.804;9.252;2022-11-20T04:11:39;6.03;;;3.40;;
70733;SDS011;58320;48.804;9.252;2022-11-20T04:14:06;6.72;;;3.90;;
70733;SDS011;58320;48.804;9.252;2022-11-20T04:16:38;6.13;;;3.58;;
70733;SDS011;58320;48.804;9.252;2022-11-20T04:19:05;6.03;;;3.43;;
70733;SDS011;58320;48.804;9.252;2022-11-20T04:21:35;6.20;;;3.67;;
70733;SDS011;58320;48.804;9.252;2022-11-20T04:24:01;6.90;;;3.88;;
70733;SDS011;58320;48.804;9.252;2022-11-20T04:26:27;6.22;;;3.75;;
70733;SDS011;58320;48.804;9.252;2022-11-20T04:28:55;5.80;;;3.25;;
70733;SDS011;58320;48.804;9.252;2022-11-20T04:31:23;5.67;;;3.47;;
70733;SDS011;58320;48.804;9.252;2022-11-20T04:33:52;7.32;;;3.92;;
70733;SDS011;58320;48.804;9.252;2022-11-20T04:36:22;7.40;;;3.70;;
70733;SDS011;58320;48.804;9.252;2022-11-20T04:38:54;6.70;;;3.55;;
70733;SDS011;58320;48.804;9.252;2022-11-20T04:41:22;6.45;;;3.80;;
70733;SDS011;58320;48.804;9.252;2022-11-20T04:43:55;6.53;;;3.67;;
70733;SDS011;58320;48.804;9.252;2022-11-20T04:46:25;6.75;;;3.65;;
70733;SDS011;58320;48.804;9.252;2022-11-20T04:52:09;6.55;;;3.30;;
70733;SDS011;58320;48.804;9.252;2022-11-20T04:54:35;6.60;;;3.60;;
70733;SDS011;58320;48.804;9.252;2022-11-20T04:57:00;5.70;;;3.33;;
70733;SDS011;58320;48.804;9.252;2022-11-20T04:59:26;6.53;;;3.70;;
70733;SDS011;58320;48.804;9.252;2022-11-20T05:01:52;7.60;;;3.60;;
70733;SDS011;58320;48.804;9.252;2022-11-20T05:04:18;6.05;;;3.38;;
70733;SDS011;58320;48.804;9.252;2022-11-20T05:06:44;5.37;;;3.43;;
70733;SDS011;58320;48.804;9.252;2022-11-20T05:09:10;6.47;;;3.80;;
70733;SDS011;58320;48.804;9.252;2022-11-20T05:11:37;7.10;;;3.40;;
70733;SDS011;58320;48.804;9.252;2022-11-20T05:14:03;7.57;;;3.00;;
70733;SDS011;58320;48.804;9.252;2022-11-20T05:16:29;5.83;;;3.40;;
70733;SDS011;58320;48.804;9.252;2022-11-20T05:18:55;6.80;;;3.53;;
70733;SDS011;58320;48.804;9.252;2022-11-20T05:21:21;6.70;;;3.35;;
70733;SDS011;58320;48.804;9.252;2022-11-20T05:23:48;6.10;;;3.58;;
70733;SDS011;58320;48.804;9.252;2022-11-20T05:26:15;6.13;;;3.20;;
70733;SDS011;58320;48.804;9.252;2022-11-20T05:28:46;5.18;;;3.42;;
70733;SDS011;58320;48.804;9.252;2022-11-20T05:31:17;6.43;;;3.53;;
70733;SDS011;58320;48.804;9.252;2022-11-20T05:33:49;5.35;;;3.33;;
70733;SDS011;58320;48.804;9.252;2022-11-20T05:36:16;4.93;;;2.90;;
70733;SDS011;58320;48.804;9.252;2022-11-20T05:38:42;7.67;;;3.57;;
70733;SDS011;58320;48.804;9.252;2022-11-20T05:43:47;6.80;;;3.38;;
70733;SDS011;58320;48.804;9.252;2022-11-20T05:46:14;6.20;;;3.30;;
70733;SDS011;58320;48.804;9.252;2022-11-20T05:48:43;6.55;;;3.20;;
70733;SDS011;58320;48.804;9.252;2022-11-20T05:51:11;6.17;;;3.37;;
70733;SDS011;58320;48.804;9.252;2022-11-20T05:53:42;5.15;;;3.42;;
70733;SDS011;58320;48.804;9.252;2022-11-20T05:56:13;7.55;;;3.05;;
70733;SDS011;58320;48.804;9.252;2022-11-20T05:58:42;6.15;;;2.75;;
70733;SDS011;58320;48.804;9.252;2022-11-20T06:01:19;6.33;;;2.83;;
70733;SDS011;58320;48.804;9.252;2022-11-20T06:03:49;6.50;;;3.22;;
70733;SDS011;58320;48.804;9.252;2022-11-20T06:06:17;6.47;;;3.00;;
70733;SDS011;58320;48.804;9.252;2022-11-20T06:08:44;5.40;;;3.00;;
70733;SDS011;58320;48.804;9.252;2022-11-20T06:11:11;5.95;;;2.90;;
70733;SDS011;58320;48.804;9.252;2022-11-20T06:13:38;5.10;;;2.40;;
70733;SDS011;58320;48.804;9.252;2022-11-20T06:16:04;5.63;;;2.72;;
70733;SDS011;58320;48.804;9.252;2022-11-20T06:18:30;4.78;;;2.10;;
70733;SDS011;58320;48.804;9.252;2022-11-20T06:21:04;4.32;;;2.47;;
70733;SDS011;58320;48.804;9.252;2022-11-20T06:23:32;4.67;;;2.40;;
70733;SDS011;58320;48.804;9.252;2022-11-20T06:26:04;4.85;;;2.80;;
70733;SDS011;58320;48.804;9.252;2022-11-20T06:28:35;4.95;;;2.50;;
70733;SDS011;58320;48.804;9.252;2022-11-20T06:31:02;4.85;;;2.85;;
70733;SDS011;58320;48.804;9.252;2022-11-20T06:33:28;7.05;;;2.90;;
70733;SDS011;58320;48.804;9.252;2022-11-20T06:35:58;6.50;;;2.70;;
70733;SDS011;58320;48.804;9.252;2022-11-20T06:38:25;6.40;;;3.00;;
70733;SDS011;58320;48.804;9.252;2022-11-20T06:40:52;7.13;;;2.95;;
70733;SDS011;58320;48.804;9.252;2022-11-20T06:43:19;6.43;;;2.80;;
70733;SDS011;58320;48.804;9.252;2022-11-20T06:45:45;10.10;;;2.90;;
70733;SDS011;58320;48.804;9.252;2022-11-20T06:48:11;5.67;;;2.37;;
70733;SDS011;58320;48.804;9.252;2022-11-20T06:50:37;4.47;;;2.33;;
70733;SDS011;58320;48.804;9.252;2022-11-20T06:53:03;4.60;;;2.40;;
70733;SDS011;58320;48.804;9.252;2022-11-20T06:55:29;4.70;;;2.37;;
70733;SDS011;58320;48.804;9.252;2022-11-20T06:57:56;4.63;;;2.50;;
70733;SDS011;58320;48.804;9.252;2022-11-20T07:00:22;5.30;;;2.70;;
70733;SDS011;58320;48.804;9.252;2022-11-20T07:02:49;4.70;;;2.42;;
70733;SDS011;58320;48.804;9.252;2022-11-20T07:05:15;5.97;;;2.63;;
70733;SDS011;58320;48.804;9.252;2022-11-20T07:07:41;4.60;;;2.50;;
70733;SDS011;58320;48.804;9.252;2022-11-20T07:10:07;6.47;;;2.85;;
70733;SDS011;58320;48.804;9.252;2022-11-20T07:12:33;4.78;;;2.60;;
70733;SDS011;58320;48.804;9.252;2022-11-20T07:14:59;4.53;;;2.57;;
70733;SDS011;58320;48.804;9.252;2022-11-20T07:17:25;4.90;;;2.30;;
70733;SDS011;58320;48.804;9.252;2022-11-20T07:19:51;5.30;;;2.58;;
70733;SDS011;58320;48.804;9.252;2022-11-20T07:22:17;5.73;;;2.83;;
70733;SDS011;58320;48.804;9.252;2022-11-20T07:24:42;5.47;;;2.60;;
70733;SDS011;58320;48.804;9.252;2022-11-20T07:27:08;4.38;;;2.55;;
70733;SDS011;58320;48.804;9.252;2022-11-20T07:29:34;4.10;;;2.40;;
70733;SDS011;58320;48.804;9.252;2022-11-20T07:32:00;4.50;;;2.20;;
70733;SDS011;58320;48.804;9.252;2022-11-20T07:34:25;6.20;;;3.00;;
70733;SDS011;58320;48.804;9.252;2022-11-20T07:36:51;4.63;;;2.50;;
70733;SDS011;58320;48.804;9.252;2022-11-20T07:39:17;5.13;;;2.38;;
70733;SDS011;58320;48.804;9.252;2022-11-20T07:41:43;4.93;;;3.00;;
70733;SDS011;58320;48.804;9.252;2022-11-20T07:44:08;4.38;;;2.25;;
70733;SDS011;58320;48.804;9.252;2022-11-20T07:46:34;5.10;;;2.83;;
70733;SDS011;58320;48.804;9.252;2022-11-20T07:49:00;5.50;;;2.45;;
70733;SDS011;58320;48.804;9.252;2022-11-20T07:51:26;6.33;;;2.83;;
70733;SDS011;58320;48.804;9.252;2022-11-20T07:53:52;5.10;;;2.93;;
70733;SDS011;58320;48.804;9.252;2022-11-20T07:56:18;5.95;;;2.72;;
70733;SDS011;58320;48.804;9.252;2022-11-20T07:58:44;5.80;;;2.63;;
70733;SDS011;58320;48.804;9.252;2022-11-20T08:01:10;5.23;;;2.23;;
70733;SDS011;58320;48.804;9.252;2022-11-20T08:03:36;4.90;;;2.53;;
70733;SDS011;58320;48.804;9.252;2022-11-20T08:06:05;5.20;;;2.80;;
70733;SDS011;58320;48.804;9.252;2022-11-20T08:08:31;4.68;;;2.90;;
70733;SDS011;58320;48.804;9.252;2022-11-20T08:10:57;4.97;;;2.37;;
70733;SDS011;58320;48.804;9.252;2022-11-20T08:13:42;6.63;;;2.70;;
70733;SDS011;58320;48.804;9.252;2022-11-20T08:16:27;4.57;;;2.30;;
70733;SDS011;58320;48.804;9.252;2022-11-20T08:18:53;5.10;;;2.40;;
70733;SDS011;58320;48.804;9.252;2022-11-20T08:21:19;4.60;;;2.65;;
70733;SDS011;58320;48.804;9.252;2022-11-20T08:23:45;4.43;;;2.70;;
70733;SDS011;58320;48.804;9.252;2022-11-20T08:26:11;5.35;;;2.50;;
70733;SDS011;58320;48.804;9.252;2022-11-20T08:28:36;5.20;;;2.53;;
70733;SDS011;58320;48.804;9.252;2022-11-20T08:31:02;6.38;;;2.30;;
70733;SDS011;58320;48.804;9.252;2022-11-20T08:33:29;5.38;;;2.35;;
70733;SDS011;58320;48.804;9.252;2022-11-20T08:36:01;5.50;;;2.13;;
70733;SDS011;58320;48.804;9.252;2022-11-20T08:38:29;4.82;;;2.03;;
70733;SDS011;58320;48.804;9.252;2022-11-20T08:40:56;4.63;;;2.50;;
70733;SDS011;58320;48.804;9.252;2022-11-20T08:43:46;4.10;;;1.90;;
70733;SDS011;58320;48.804;9.252;2022-11-20T08:46:12;4.50;;;2.40;;
70733;SDS011;58320;48.804;9.252;2022-11-20T08:48:38;4.27;;;2.20;;
70733;SDS011;58320;48.804;9.252;2022-11-20T08:51:04;3.90;;;1.95;;
70733;SDS011;58320;48.804;9.252;2022-11-20T08:53:30;3.25;;;1.70;;
70733;SDS011;58320;48.804;9.252;2022-11-20T08:55:58;3.50;;;1.90;;
70733;SDS011;58320;48.804;9.252;2022-11-20T08:58:25;4.00;;;1.48;;
70733;SDS011;58320;48.804;9.252;2022-11-20T09:00:51;3.95;;;1.80;;
70733;SDS011;58320;48.804;9.252;2022-11-20T09:03:17;4.70;;;2.00;;
70733;SDS011;58320;48.804;9.252;2022-11-20T09:05:43;5.57;;;2.23;;
70733;SDS011;58320;48.804;9.252;2022-11-20T09:08:09;3.47;;;1.60;;
70733;SDS011;58320;48.804;9.252;2022-11-20T09:10:35;6.32;;;2.72;;
70733;SDS011;58320;48.804;9.252;2022-11-20T09:13:01;4.60;;;1.85;;
70733;SDS011;58320;48.804;9.252;2022-11-20T09:15:27;6.80;;;2.30;;
70733;SDS011;58320;48.804;9.252;2022-11-20T09:17:57;4.18;;;1.77;;
70733;SDS011;58320;48.804;9.252;2022-11-20T09:20:28;4.88;;;2.00;;
70733;SDS011;58320;48.804;9.252;2022-11-20T09:22:55;4.03;;;1.50;;
70733;SDS011;58320;48.804;9.252;2022-11-20T09:25:22;9.45;;;3.88;;
70733;SDS011;58320;48.804;9.252;2022-11-20T09:27:54;2.93;;;1.23;;
70733;SDS011;58320;48.804;9.252;2022-11-20T09:30:23;6.65;;;4.13;;
70733;SDS011;58320;48.804;9.252;2022-11-20T09:32:50;4.15;;;1.85;;
70733;SDS011;58320;48.804;9.252;2022-11-20T09:35:16;3.80;;;1.58;;
70733;SDS011;58320;48.804;9.252;2022-11-20T09:37:43;4.57;;;2.73;;
70733;SDS011;58320;48.804;9.252;2022-11-20T09:40:17;3.30;;;1.02;;
70733;SDS011;58320;48.804;9.252;2022-11-20T09:56:53;2.15;;;0.98;;
70733;SDS011;58320;48.804;9.252;2022-11-20T09:59:31;2.65;;;0.75;;
70733;SDS011;58320;48.804;9.252;2022-11-20T10:11:08;2.08;;;0.90;;
70733;SDS011;58320;48.804;9.252;2022-11-20T10:16:37;2.30;;;1.15;;
70733;SDS011;58320;48.804;9.252;2022-11-20T10:19:36;2.57;;;0.90;;
70733;SDS011;58320;48.804;9.252;2022-11-20T10:30:24;2.50;;;1.20;;
70733;SDS011;58320;48.804;9.252;2022-11-20T10:35:45;3.60;;;1.10;;
70733;SDS011;58320;48.804;9.252;2022-11-20T10:38:21;3.00;;;1.25;;
70733;SDS011;58320;48.804;9.252;2022-11-20T10:41:20;2.92;;;1.00;;
70733;SDS011;58320;48.804;9.252;2022-11-20T10:44:15;2.83;;;1.15;;
70733;SDS011;58320;48.804;9.252;2022-11-20T10:47:04;2.00;;;0.90;;
70733;SDS011;58320;48.804;9.252;2022-11-20T10:49:37;2.83;;;1.10;;
70733;SDS011;58320;48.804;9.252;2022-11-20T11:03:48;2.67;;;0.93;;
70733;SDS011;58320;48.804;9.252;2022-11-20T11:08:58;3.08;;;1.10;;
70733;SDS011;58320;48.804;9.252;2022-11-20T11:11:30;4.60;;;1.38;;
70733;SDS011;58320;48.804;9.252;2022-11-20T11:14:08;3.20;;;1.33;;
70733;SDS011;58320;48.804;9.252;2022-11-20T11:16:40;3.58;;;1.30;;
70733;SDS011;58320;48.804;9.252;2022-11-20T11:19:22;3.28;;;1.50;;
70733;SDS011;58320;48.804;9.252;2022-11-20T11:21:52;3.53;;;1.70;;
70733;SDS011;58320;48.804;9.252;2022-11-20T11:24:25;5.18;;;2.22;;
70733;SDS011;58320;48.804;9.252;2022-11-20T11:26:58;4.60;;;2.00;;
70733;SDS011;58320;48.804;9.252;2022-11-20T11:29:31;4.25;;;1.75;;
70733;SDS011;58320;48.804;9.252;2022-11-20T11:32:11;4.07;;;1.83;;
70733;SDS011;58320;48.804;9.252;2022-11-20T11:34:40;4.50;;;2.63;;
70733;SDS011;58320;48.804;9.252;2022-11-20T11:37:17;5.13;;;2.67;;
70733;SDS011;58320;48.804;9.252;2022-11-20T11:39:46;5.00;;;2.10;;
70733;SDS011;58320;48.804;9.252;2022-11-20T11:42:16;4.32;;;1.85;;
70733;SDS011;58320;48.804;9.252;2022-11-20T11:44:44;5.78;;;1.38;;
70733;SDS011;58320;48.804;9.252;2022-11-20T11:55:42;3.30;;;1.30;;
70733;SDS011;58320;48.804;9.252;2022-11-20T12:06:56;3.08;;;1.45;;
70733;SDS011;58320;48.804;9.252;2022-11-20T12:09:34;3.72;;;1.40;;
70733;SDS011;58320;48.804;9.252;2022-11-20T12:12:09;2.58;;;1.10;;
70733;SDS011;58320;48.804;9.252;2022-11-20T12:14:43;3.73;;;1.20;;
70733;SDS011;58320;48.804;9.252;2022-11-20T12:17:14;4.45;;;1.40;;
70733;SDS011;58320;48.804;9.252;2022-11-20T12:19:40;3.20;;;1.20;;
70733;SDS011;58320;48.804;9.252;2022-11-20T12:25:36;5.25;;;1.30;;
70733;SDS011;58320;48.804;9.252;2022-11-20T12:31:38;5.72;;;1.50;;
70733;SDS011;58320;48.804;9.252;2022-11-20T12:37:08;2.80;;;1.20;;
70733;SDS011;58320;48.804;9.252;2022-11-20T12:39:48;3.45;;;1.30;;
70733;SDS011;58320;48.804;9.252;2022-11-20T12:42:38;3.73;;;1.10;;
70733;SDS011;58320;48.804;9.252;2022-11-20T12:54:11;3.30;;;1.10;;
70733;SDS011;58320;48.804;9.252;2022-11-20T13:00:15;3.33;;;1.10;;
70733;SDS011;58320;48.804;9.252;2022-11-20T13:08:38;2.92;;;1.00;;
70733;SDS011;58320;48.804;9.252;2022-11-20T13:19:42;2.72;;;1.10;;
70733;SDS011;58320;48.804;9.252;2022-11-20T13:22:27;2.75;;;1.25;;
70733;SDS011;58320;48.804;9.252;2022-11-20T13:27:56;2.00;;;1.00;;
70733;SDS011;58320;48.804;9.252;2022-11-20T13:30:28;2.72;;;1.00;;
70733;SDS011;58320;48.804;9.252;2022-11-20T13:33:02;1.85;;;0.80;;
70733;SDS011;58320;48.804;9.252;2022-11-20T13:35:35;3.92;;;1.10;;
70733;SDS011;58320;48.804;9.252;2022-11-20T13:40:37;2.97;;;0.85;;
70733;SDS011;58320;48.804;9.252;2022-11-20T13:43:44;2.90;;;1.10;;
70733;SDS011;58320;48.804;9.252;2022-11-20T13:46:13;2.85;;;0.90;;
70733;SDS011;58320;48.804;9.252;2022-11-20T13:48:43;3.28;;;1.02;;
70733;SDS011;58320;48.804;9.252;2022-11-20T13:51:34;3.10;;;1.10;;
70733;SDS011;58320;48.804;9.252;2022-11-20T13:54:17;3.15;;;0.80;;
70733;SDS011;58320;48.804;9.252;2022-11-20T14:03:32;2.70;;;1.00;;
70733;SDS011;58320;48.804;9.252;2022-11-20T14:06:01;3.37;;;1.17;;
70733;SDS011;58320;48.804;9.252;2022-11-20T14:08:40;2.67;;;1.00;;
70733;SDS011;58320;48.804;9.252;2022-11-20T14:11:13;2.40;;;0.90;;
70733;SDS011;58320;48.804;9.252;2022-11-20T14:14:12;3.85;;;1.10;;
70733;SDS011;58320;48.804;9.252;2022-11-20T14:16:42;2.60;;;0.90;;
70733;SDS011;58320;48.804;9.252;2022-11-20T14:19:42;2.03;;;0.80;;
70733;SDS011;58320;48.804;9.252;2022-11-20T14:27:41;2.75;;;1.20;;
70733;SDS011;58320;48.804;9.252;2022-11-20T14:30:16;3.08;;;1.17;;
70733;SDS011;58320;48.804;9.252;2022-11-20T14:32:45;5.20;;;1.47;;
70733;SDS011;58320;48.804;9.252;2022-11-20T14:35:14;3.90;;;1.02;;
70733;SDS011;58320;48.804;9.252;2022-11-20T14:37:51;2.58;;;0.95;;
70733;SDS011;58320;48.804;9.252;2022-11-20T14:40:31;2.53;;;1.08;;
70733;SDS011;58320;48.804;9.252;2022-11-20T14:43:01;3.15;;;1.17;;
70733;SDS011;58320;48.804;9.252;2022-11-20T14:45:44;3.30;;;1.37;;
70733;SDS011;58320;48.804;9.252;2022-11-20T14:48:17;6.38;;;2.55;;
70733;SDS011;58320;48.804;9.252;2022-11-20T14:50:43;4.35;;;1.60;;
70733;SDS011;58320;48.804;9.252;2022-11-20T14:53:09;4.47;;;2.10;;
70733;SDS011;58320;48.804;9.252;2022-11-20T14:55:36;3.40;;;1.70;;
70733;SDS011;58320;48.804;9.252;2022-11-20T14:58:26;4.53;;;1.40;;
70733;SDS011;58320;48.804;9.252;2022-11-20T15:01:00;4.15;;;1.60;;
70733;SDS011;58320;48.804;9.252;2022-11-20T15:05:59;3.60;;;1.30;;
70733;SDS011;58320;48.804;9.252;2022-11-20T15:08:25;6.28;;;2.00;;
70733;SDS011;58320;48.804;9.252;2022-11-20T15:10:51;4.97;;;1.58;;
70733;SDS011;58320;48.804;9.252;2022-11-20T15:13:24;4.60;;;1.80;;
70733;SDS011;58320;48.804;9.252;2022-11-20T15:15:55;4.55;;;1.42;;
70733;SDS011;58320;48.804;9.252;2022-11-20T15:18:23;4.93;;;1.80;;
70733;SDS011;58320;48.804;9.252;2022-11-20T15:21:02;3.95;;;1.63;;
70733;SDS011;58320;48.804;9.252;2022-11-20T15:23:32;5.18;;;1.60;;
70733;SDS011;58320;48.804;9.252;2022-11-20T15:25:59;5.38;;;1.95;;
70733;SDS011;58320;48.804;9.252;2022-11-20T15:31:05;3.30;;;1.30;;
70733;SDS011;58320;48.804;9.252;2022-11-20T15:33:32;5.38;;;1.63;;
70733;SDS011;58320;48.804;9.252;2022-11-20T15:35:58;3.63;;;1.10;;
70733;SDS011;58320;48.804;9.252;2022-11-20T15:38:25;4.05;;;1.70;;
70733;SDS011;58320;48.804;9.252;2022-11-20T15:40:50;2.80;;;1.33;;
70733;SDS011;58320;48.804;9.252;2022-11-20T15:43:16;3.60;;;2.08;;
70733;SDS011;58320;48.804;9.252;2022-11-20T15:45:43;3.55;;;1.70;;
70733;SDS011;58320;48.804;9.252;2022-11-20T15:48:33;2.72;;;1.40;;
70733;SDS011;58320;48.804;9.252;2022-11-20T15:51:11;3.10;;;1.57;;
70733;SDS011;58320;48.804;9.252;2022-11-20T15:53:46;4.95;;;1.80;;
70733;SDS011;58320;48.804;9.252;2022-11-20T15:56:12;4.47;;;1.70;;
70733;SDS011;58320;48.804;9.252;2022-11-20T15:58:39;5.07;;;1.73;;
70733;SDS011;58320;48.804;9.252;2022-11-20T16:01:08;3.40;;;1.90;;
70733;SDS011;58320;48.804;9.252;2022-11-20T16:03:37;3.40;;;1.60;;
70733;SDS011;58320;48.804;9.252;2022-11-20T16:06:03;5.80;;;2.22;;
70733;SDS011;58320;48.804;9.252;2022-11-20T16:08:29;3.75;;;2.00;;
70733;SDS011;58320;48.804;9.252;2022-11-20T16:10:55;3.20;;;1.70;;
70733;SDS011;58320;48.804;9.252;2022-11-20T16:13:20;3.15;;;1.45;;
70733;SDS011;58320;48.804;9.252;2022-11-20T16:16:05;4.45;;;1.60;;
70733;SDS011;58320;48.804;9.252;2022-11-20T16:18:37;3.05;;;1.48;;
70733;SDS011;58320;48.804;9.252;2022-11-20T16:21:03;5.43;;;1.60;;
70733;SDS011;58320;48.804;9.252;2022-11-20T16:23:30;4.15;;;1.80;;
70733;SDS011;58320;48.804;9.252;2022-11-20T16:25:57;3.90;;;1.70;;
70733;SDS011;58320;48.804;9.252;2022-11-20T16:28:22;8.10;;;3.27;;
70733;SDS011;58320;48.804;9.252;2022-11-20T16:30:48;10.93;;;5.15;;
70733;SDS011;58320;48.804;9.252;2022-11-20T16:33:15;22.57;;;13.60;;
70733;SDS011;58320;48.804;9.252;2022-11-20T16:35:42;10.30;;;5.63;;
70733;SDS011;58320;48.804;9.252;2022-11-20T16:38:08;6.50;;;3.60;;
70733;SDS011;58320;48.804;9.252;2022-11-20T16:40:34;6.53;;;4.85;;
70733;SDS011;58320;48.804;9.252;2022-11-20T16:43:06;4.65;;;2.60;;
70733;SDS011;58320;48.804;9.252;2022-11-20T16:45:39;4.07;;;1.97;;
70733;SDS011;58320;48.804;9.252;2022-11-20T16:48:10;3.88;;;1.83;;
70733;SDS011;58320;48.804;9.252;2022-11-20T16:50:44;4.85;;;2.17;;
70733;SDS011;58320;48.804;9.252;2022-11-20T16:53:15;4.38;;;2.10;;
70733;SDS011;58320;48.804;9.252;2022-11-20T16:55:42;4.15;;;2.13;;
70733;SDS011;58320;48.804;9.252;2022-11-20T16:58:08;5.13;;;2.23;;
70733;SDS011;58320;48.804;9.252;2022-11-20T17:00:38;4.53;;;2.05;;
70733;SDS011;58320;48.804;9.252;2022-11-20T17:03:05;3.47;;;1.70;;
70733;SDS011;58320;48.804;9.252;2022-11-20T17:05:32;4.10;;;1.90;;
70733;SDS011;58320;48.804;9.252;2022-11-20T17:07:58;4.73;;;2.03;;
70733;SDS011;58320;48.804;9.252;2022-11-20T17:10:25;8.77;;;3.05;;
70733;SDS011;58320;48.804;9.252;2022-11-20T17:12:51;100.43;;;29.88;;
70733;SDS011;58320;48.804;9.252;2022-11-20T17:15:20;11.43;;;5.45;;
70733;SDS011;58320;48.804;9.252;2022-11-20T17:17:46;6.78;;;3.00;;
70733;SDS011;58320;48.804;9.252;2022-11-20T17:20:11;7.13;;;3.63;;
70733;SDS011;58320;48.804;9.252;2022-11-20T17:22:37;8.68;;;4.68;;
70733;SDS011;58320;48.804;9.252;2022-11-20T17:25:03;4.80;;;2.80;;